createdAt,value
2022-11-22T00:01:02.140Z,8.48
2022-11-22T00:03:31.914Z,8.40
2022-11-22T00:06:00.147Z,8.42
2022-11-22T00:08:28.556Z,8.40
2022-11-22T00:10:56.831Z,8.39
2022-11-22T00:13:25.027Z,8.38
2022-11-22T00:16:00.679Z,8.36
2022-11-22T00:18:29.104Z,8.35
2022-11-22T00:20:58.685Z,8.49
2022-11-22T00:23:26.936Z,8.48
2022-11-22T00:25:55.174Z,8.55
2022-11-22T00:28:23.449Z,8.64
2022-11-22T00:30:51.714Z,8.64
2022-11-22T00:33:19.983Z,8.79
2022-11-22T00:35:48.309Z,8.91
2022-11-22T00:38:17.901Z,8.85
2022-11-22T00:40:46.128Z,8.91
2022-11-22T00:43:14.425Z,8.99
2022-11-22T00:45:43.007Z,9.02
2022-11-22T00:48:11.263Z,8.97
2022-11-22T00:50:40.161Z,8.93
2022-11-22T00:53:08.420Z,9.00
2022-11-22T00:55:38.004Z,8.93
2022-11-22T00:58:06.291Z,8.87
2022-11-22T01:00:34.656Z,8.94
2022-11-22T01:03:02.919Z,8.87
2022-11-22T01:05:31.138Z,8.86
2022-11-22T01:07:59.438Z,8.85
2022-11-22T01:10:27.733Z,8.91
2022-11-22T01:12:58.613Z,8.85
2022-11-22T01:15:26.931Z,8.90
2022-11-22T01:17:55.140Z,8.90
2022-11-22T01:20:23.978Z,8.90
2022-11-22T01:22:52.523Z,8.78
2022-11-22T01:25:20.833Z,8.82
2022-11-22T01:27:50.940Z,8.88
2022-11-22T01:30:20.819Z,8.84
2022-11-22T01:32:49.109Z,8.76
2022-11-22T01:35:17.629Z,8.82
2022-11-22T01:37:45.917Z,8.89
2022-11-22T01:40:14.251Z,8.81
2022-11-22T01:42:50.710Z,8.77
2022-11-22T01:45:44.720Z,8.92
2022-11-22T01:48:33.014Z,8.80
2022-11-22T01:51:08.497Z,8.81
2022-11-22T01:53:40.139Z,8.84
2022-11-22T01:56:13.465Z,8.84
2022-11-22T01:58:44.969Z,8.85
2022-11-22T02:01:14.719Z,8.93
2022-11-22T02:03:47.805Z,8.88
2022-11-22T02:06:16.886Z,8.79
2022-11-22T02:08:56.247Z,8.69
2022-11-22T02:11:30.973Z,8.84
2022-11-22T02:14:02.274Z,8.83
2022-11-22T02:16:32.370Z,8.82
2022-11-22T02:19:00.653Z,8.72
2022-11-22T02:21:30.254Z,8.73
2022-11-22T02:24:07.749Z,8.67
2022-11-22T02:26:37.540Z,8.75
2022-11-22T02:29:08.985Z,8.75
2022-11-22T02:31:42.522Z,8.63
2022-11-22T02:34:11.596Z,8.67
2022-11-22T02:36:46.221Z,8.61
2022-11-22T02:39:18.906Z,8.64
2022-11-22T02:41:50.065Z,8.54
2022-11-22T02:44:19.249Z,8.66
2022-11-22T02:46:49.711Z,8.66
2022-11-22T02:49:20.000Z,8.61
2022-11-22T02:51:49.968Z,8.59
2022-11-22T02:54:18.785Z,8.62
2022-11-22T02:56:48.811Z,8.69
2022-11-22T02:59:17.114Z,8.70
2022-11-22T03:01:48.213Z,8.73
2022-11-22T03:04:24.758Z,8.75
2022-11-22T03:06:55.667Z,8.68
2022-11-22T03:09:24.434Z,8.55
2022-11-22T03:11:54.902Z,8.78
2022-11-22T03:14:23.529Z,8.83
2022-11-22T03:16:52.456Z,8.81
2022-11-22T03:19:21.092Z,8.79
2022-11-22T03:21:49.565Z,8.67
2022-11-22T03:24:19.363Z,8.72
2022-11-22T03:26:49.489Z,8.76
2022-11-22T03:29:19.765Z,8.73
2022-11-22T03:31:48.076Z,8.65
2022-11-22T03:34:17.236Z,8.65
2022-11-22T03:36:45.613Z,8.60
2022-11-22T03:39:13.899Z,8.54
2022-11-22T03:41:42.368Z,8.51
2022-11-22T03:44:10.756Z,8.55
2022-11-22T03:46:40.471Z,8.37
2022-11-22T03:49:08.828Z,8.48
2022-11-22T03:51:37.120Z,8.36
2022-11-22T03:54:05.809Z,8.48
2022-11-22T03:56:34.236Z,8.52
2022-11-22T03:59:02.630Z,8.52
2022-11-22T04:01:30.996Z,8.42
2022-11-22T04:04:00.723Z,8.17
2022-11-22T04:06:29.051Z,8.51
2022-11-22T04:08:57.391Z,8.43
2022-11-22T04:11:25.862Z,8.47
2022-11-22T04:14:11.890Z,8.27
2022-11-22T04:16:40.164Z,8.55
2022-11-22T04:19:09.970Z,8.51
2022-11-22T04:21:37.299Z,8.37
2022-11-22T04:24:25.252Z,8.47
2022-11-22T04:26:55.118Z,8.44
2022-11-22T04:29:24.275Z,8.32
2022-11-22T04:32:10.696Z,8.27
2022-11-22T04:34:40.326Z,8.22
2022-11-22T04:37:08.617Z,8.11
2022-11-22T04:39:36.940Z,8.01
2022-11-22T04:42:31.804Z,7.91
2022-11-22T04:45:00.214Z,7.78
2022-11-22T04:47:50.155Z,7.65
2022-11-22T04:50:37.739Z,7.72
2022-11-22T04:53:06.265Z,7.63
2022-11-22T04:55:34.500Z,7.61
2022-11-22T04:58:02.922Z,7.04
2022-11-22T05:00:32.301Z,7.81
2022-11-22T05:03:01.013Z,7.64
2022-11-22T05:05:31.081Z,7.53
2022-11-22T05:08:00.297Z,7.78
2022-11-22T05:10:28.640Z,7.75
2022-11-22T05:12:57.368Z,7.76
2022-11-22T05:15:25.632Z,7.78
2022-11-22T05:17:53.871Z,7.69
2022-11-22T05:20:24.903Z,7.78
2022-11-22T05:23:12.284Z,7.80
2022-11-22T05:25:40.545Z,7.70
2022-11-22T05:28:08.832Z,7.69
2022-11-22T05:30:40.117Z,7.73
2022-11-22T05:33:08.713Z,7.80
2022-11-22T05:35:36.994Z,7.79
2022-11-22T05:38:06.634Z,7.65
2022-11-22T05:40:34.938Z,7.52
2022-11-22T05:43:03.247Z,7.56
2022-11-22T05:45:31.530Z,7.55
2022-11-22T05:47:59.943Z,7.13
2022-11-22T05:50:28.184Z,7.50
2022-11-22T05:53:01.990Z,7.48
2022-11-22T05:55:32.205Z,7.50
2022-11-22T05:58:02.186Z,7.56
2022-11-22T06:00:31.150Z,7.59
2022-11-22T06:03:02.522Z,7.62
2022-11-22T06:05:31.534Z,7.59
2022-11-22T06:08:02.681Z,7.43
2022-11-22T06:10:34.354Z,7.39
2022-11-22T06:13:02.649Z,7.50
2022-11-22T06:15:31.814Z,7.46
2022-11-22T06:18:00.125Z,7.41
2022-11-22T06:20:28.402Z,7.44
2022-11-22T06:22:59.047Z,7.27
2022-11-22T06:25:27.352Z,7.25
2022-11-22T06:28:00.086Z,7.20
2022-11-22T06:30:28.387Z,7.40
2022-11-22T06:32:58.328Z,7.32
2022-11-22T06:35:26.592Z,7.39
2022-11-22T06:38:00.324Z,7.42
2022-11-22T06:40:29.022Z,7.45
2022-11-22T06:42:58.592Z,7.35
2022-11-22T06:45:27.023Z,7.34
2022-11-22T06:47:55.254Z,7.48
2022-11-22T06:50:23.547Z,7.35
2022-11-22T06:52:52.772Z,7.31
2022-11-22T06:55:49.169Z,7.42
2022-11-22T06:58:10.909Z,7.55
2022-11-22T07:00:39.271Z,7.49
2022-11-22T07:03:07.618Z,7.48
2022-11-22T07:05:35.987Z,7.50
2022-11-22T07:08:10.532Z,7.58
2022-11-22T07:10:41.709Z,7.42
2022-11-22T07:13:11.387Z,7.51
2022-11-22T07:15:39.852Z,7.52
2022-11-22T07:18:08.187Z,7.41
2022-11-22T07:20:36.635Z,7.53
2022-11-22T07:23:04.861Z,7.46
2022-11-22T07:25:33.173Z,7.51
2022-11-22T07:28:01.466Z,7.48
2022-11-22T07:30:31.066Z,7.56
2022-11-22T07:32:59.332Z,7.59
2022-11-22T07:35:27.630Z,7.61
2022-11-22T07:37:55.843Z,7.59
2022-11-22T07:40:24.124Z,7.55
2022-11-22T07:42:58.188Z,7.54
2022-11-22T07:45:27.237Z,7.58
2022-11-22T07:47:56.941Z,7.31
2022-11-22T07:50:25.350Z,7.55
2022-11-22T07:52:57.438Z,7.71
2022-11-22T07:55:26.886Z,7.85
2022-11-22T07:57:55.563Z,8.07
2022-11-22T08:00:24.255Z,7.94
2022-11-22T08:02:52.611Z,7.66
2022-11-22T08:05:22.571Z,7.61
2022-11-22T08:07:52.954Z,7.78
2022-11-22T08:10:22.258Z,7.73
2022-11-22T08:12:50.678Z,7.73
2022-11-22T08:15:19.301Z,7.56
2022-11-22T08:17:47.502Z,7.62
2022-11-22T08:20:16.187Z,7.66
2022-11-22T08:22:45.899Z,7.62
2022-11-22T08:25:14.297Z,7.55
2022-11-22T08:27:43.907Z,7.48
2022-11-22T08:30:13.248Z,7.29
2022-11-22T08:32:41.411Z,7.53
2022-11-22T08:35:10.585Z,7.64
2022-11-22T08:37:38.902Z,7.70
2022-11-22T08:40:10.648Z,7.53
2022-11-22T08:42:38.991Z,7.71
2022-11-22T08:45:08.909Z,7.73
2022-11-22T08:47:37.209Z,7.57
2022-11-22T08:50:06.927Z,7.67
2022-11-22T08:52:36.010Z,7.67
2022-11-22T08:55:04.322Z,7.65
2022-11-22T08:57:33.979Z,7.85
2022-11-22T09:00:02.284Z,7.62
2022-11-22T09:02:30.615Z,7.76
2022-11-22T09:04:58.995Z,7.85
2022-11-22T09:10:15.721Z,7.86
2022-11-22T09:12:47.170Z,7.82
2022-11-22T09:15:16.712Z,7.84
2022-11-22T09:17:45.090Z,7.80
2022-11-22T09:20:13.567Z,7.81
2022-11-22T09:22:41.949Z,7.85
2022-11-22T09:25:11.092Z,7.72
2022-11-22T09:27:39.321Z,7.96
2022-11-22T09:30:11.406Z,7.85
2022-11-22T09:32:39.706Z,7.80
2022-11-22T09:35:08.493Z,7.78
2022-11-22T09:37:36.894Z,7.89
2022-11-22T09:40:06.234Z,7.90
2022-11-22T09:43:03.643Z,7.86
2022-11-22T09:46:00.021Z,7.97
2022-11-22T09:48:49.452Z,7.86
2022-11-22T09:51:22.712Z,7.91
2022-11-22T09:53:56.497Z,7.79
2022-11-22T09:56:28.400Z,8.04
2022-11-22T09:59:03.426Z,8.10
2022-11-22T10:01:41.121Z,8.17
2022-11-22T10:04:15.583Z,8.14
2022-11-22T10:06:47.644Z,8.06
2022-11-22T10:09:32.622Z,8.03
2022-11-22T10:12:04.854Z,8.10
2022-11-22T10:14:42.840Z,7.96
2022-11-22T10:17:40.093Z,7.93
2022-11-22T10:20:15.438Z,8.02
2022-11-22T10:22:44.167Z,7.81
2022-11-22T10:25:19.387Z,7.84
2022-11-22T10:27:57.561Z,7.64
2022-11-22T10:30:37.033Z,7.94
2022-11-22T10:33:19.165Z,7.83
2022-11-22T10:36:08.964Z,7.96
2022-11-22T10:38:54.192Z,8.01
2022-11-22T10:41:39.652Z,8.03
2022-11-22T10:44:26.365Z,8.03
2022-11-22T10:47:07.519Z,8.00
2022-11-22T10:49:56.185Z,8.15
2022-11-22T10:52:36.928Z,8.06
2022-11-22T10:55:16.091Z,8.10
2022-11-22T10:57:54.765Z,8.12
2022-11-22T11:00:25.543Z,8.18
2022-11-22T11:03:26.196Z,8.10
2022-11-22T11:09:55.121Z,8.08
2022-11-22T11:11:47.125Z,8.09
2022-11-22T11:14:29.506Z,8.15
2022-11-22T11:16:58.689Z,8.10
2022-11-22T11:19:31.242Z,7.98
2022-11-22T11:22:31.613Z,8.19
2022-11-22T11:25:32.503Z,8.17
2022-11-22T11:28:05.560Z,7.97
2022-11-22T11:30:42.249Z,7.92
2022-11-22T11:33:26.337Z,8.19
2022-11-22T11:35:59.154Z,8.14
2022-11-22T11:38:32.199Z,8.26
2022-11-22T11:41:17.633Z,8.19
2022-11-22T11:43:46.871Z,8.02
2022-11-22T11:46:19.797Z,8.20
2022-11-22T11:48:48.899Z,8.21
2022-11-22T11:51:22.384Z,8.09
2022-11-22T11:54:00.861Z,8.17
2022-11-22T11:56:35.316Z,8.26
2022-11-22T11:59:13.159Z,8.21
2022-11-22T12:01:54.156Z,8.16
2022-11-22T12:04:27.509Z,8.15
2022-11-22T12:07:06.634Z,8.08
2022-11-22T12:09:44.253Z,7.98
2022-11-22T12:12:41.692Z,8.13
2022-11-22T12:15:19.669Z,8.18
2022-11-22T12:17:55.808Z,8.07
2022-11-22T12:20:30.538Z,8.01
2022-11-22T12:23:14.129Z,8.29
2022-11-22T12:25:45.646Z,8.25
2022-11-22T12:28:20.349Z,7.97
2022-11-22T12:31:03.485Z,8.21
2022-11-22T12:33:35.978Z,8.17
2022-11-22T12:36:06.299Z,8.13
2022-11-22T12:38:39.785Z,8.23
2022-11-22T12:41:13.774Z,8.19
2022-11-22T12:43:47.447Z,8.23
2022-11-22T12:46:25.937Z,8.16
2022-11-22T12:49:16.702Z,7.95
2022-11-22T12:51:48.130Z,8.17
2022-11-22T12:54:22.630Z,8.15
2022-11-22T12:56:57.135Z,7.93
2022-11-22T12:59:38.971Z,8.13
2022-11-22T13:02:23.254Z,8.15
2022-11-22T13:04:58.830Z,8.12
2022-11-22T13:07:45.460Z,8.21
2022-11-22T13:10:25.393Z,8.23
2022-11-22T13:12:58.652Z,8.28
2022-11-22T13:15:31.763Z,8.40
2022-11-22T13:18:00.246Z,8.30
2022-11-22T13:20:39.510Z,8.32
2022-11-22T13:23:30.432Z,8.41
2022-11-22T13:26:13.272Z,8.39
2022-11-22T13:28:45.905Z,8.32
2022-11-22T13:31:19.743Z,7.95
2022-11-22T13:33:58.082Z,8.45
2022-11-22T13:36:41.457Z,8.41
2022-11-22T13:39:18.827Z,8.46
2022-11-22T13:42:03.237Z,8.46
2022-11-22T13:45:08.522Z,8.46
2022-11-22T13:47:45.572Z,8.35
2022-11-22T13:51:02.696Z,8.49
2022-11-22T13:53:34.610Z,8.47
2022-11-22T13:56:50.402Z,8.55
2022-11-22T13:59:19.506Z,8.46
2022-11-22T14:02:02.410Z,8.34
2022-11-22T14:04:45.093Z,8.57
2022-11-22T14:07:36.362Z,8.60
2022-11-22T14:10:26.444Z,8.64
2022-11-22T14:13:30.112Z,8.48
2022-11-22T14:16:40.749Z,8.67
2022-11-22T14:19:28.923Z,8.65
2022-11-22T14:22:19.092Z,8.68
2022-11-22T14:25:23.336Z,8.65
2022-11-22T14:27:57.776Z,8.60
2022-11-22T14:30:40.458Z,8.54
2022-11-22T14:33:17.734Z,8.57
2022-11-22T14:36:18.073Z,8.54
2022-11-22T14:38:46.658Z,8.49
2022-11-22T14:41:53.274Z,8.58
2022-11-22T14:44:27.470Z,8.61
2022-11-22T14:47:03.714Z,8.56
2022-11-22T14:49:44.138Z,8.54
2022-11-22T14:52:24.646Z,8.61
2022-11-22T14:54:58.061Z,8.29
2022-11-22T14:57:29.624Z,8.51
2022-11-22T15:00:18.244Z,8.42
2022-11-22T15:03:37.196Z,8.28
2022-11-22T15:09:19.843Z,8.42
2022-11-22T15:09:55.564Z,8.66
2022-11-22T15:13:00.497Z,8.61
2022-11-22T15:57:33.908Z,8.73
2022-11-22T16:00:03.629Z,8.83
2022-11-22T16:02:40.506Z,8.92
2022-11-22T16:06:10.537Z,8.82
2022-11-22T16:08:02.028Z,8.76
2022-11-22T16:10:37.640Z,8.70
2022-11-22T16:13:22.629Z,8.85
2022-11-22T16:16:07.501Z,8.84
2022-11-22T16:18:35.843Z,8.76
2022-11-22T16:21:25.104Z,8.58
2022-11-22T16:24:16.365Z,8.73
2022-11-22T16:26:57.958Z,8.60
2022-11-22T16:29:32.214Z,8.44
2022-11-22T16:32:06.668Z,8.57
2022-11-22T16:34:34.985Z,8.57
2022-11-22T16:37:03.483Z,8.76
2022-11-22T16:39:33.736Z,8.69
2022-11-22T16:42:02.303Z,8.70
2022-11-22T16:44:31.947Z,8.65
2022-11-22T16:47:01.009Z,8.67
2022-11-22T16:49:29.725Z,8.71
2022-11-22T16:51:58.189Z,8.71
2022-11-22T16:54:28.634Z,8.72
2022-11-22T16:56:56.934Z,8.59
2022-11-22T16:59:25.198Z,8.76
2022-11-22T17:01:55.364Z,8.90
2022-11-22T17:04:26.975Z,8.81
2022-11-22T17:06:56.058Z,8.84
2022-11-22T17:09:24.304Z,8.87
2022-11-22T17:11:52.677Z,8.93
2022-11-22T17:14:21.261Z,8.98
2022-11-22T17:16:49.525Z,9.06
2022-11-22T17:19:45.710Z,9.05
2022-11-22T17:22:07.868Z,9.12
2022-11-22T17:24:36.675Z,9.10
2022-11-22T17:27:05.149Z,9.17
2022-11-22T17:32:21.838Z,9.31
2022-11-22T17:34:51.476Z,9.28
2022-11-22T17:37:19.735Z,9.34
2022-11-22T17:39:52.107Z,9.42
2022-11-22T17:42:20.450Z,9.21
2022-11-22T17:44:48.649Z,9.49
2022-11-22T17:47:16.993Z,9.53
2022-11-22T17:49:45.303Z,9.61
2022-11-22T17:52:14.883Z,9.56
2022-11-22T17:54:43.287Z,9.72
2022-11-22T17:57:11.489Z,9.82
2022-11-22T17:59:39.862Z,9.81
2022-11-22T18:02:08.178Z,9.97
2022-11-22T18:04:36.535Z,10.05
2022-11-22T18:07:04.845Z,10.06
2022-11-22T18:09:34.870Z,10.01
2022-11-22T18:12:03.534Z,10.20
2022-11-22T18:14:31.815Z,10.10
2022-11-22T18:17:00.605Z,10.13
2022-11-22T18:19:29.136Z,10.06
2022-11-22T18:21:57.865Z,10.01
2022-11-22T18:24:26.376Z,10.29
2022-11-22T18:26:56.093Z,10.17
2022-11-22T18:29:41.779Z,10.20
2022-11-22T18:32:10.882Z,10.04
2022-11-22T18:34:39.334Z,8.30
2022-11-22T18:37:07.705Z,10.20
2022-11-22T18:39:39.385Z,10.11
2022-11-22T18:42:13.441Z,10.03
2022-11-22T18:44:42.320Z,10.30
2022-11-22T18:47:11.000Z,10.31
2022-11-22T18:49:39.339Z,10.34
2022-11-22T18:52:09.696Z,10.33
2022-11-22T18:54:40.286Z,10.32
2022-11-22T18:57:10.069Z,10.27
2022-11-22T18:59:38.318Z,10.27
2022-11-22T19:02:07.361Z,10.32
2022-11-22T19:04:35.903Z,10.35
2022-11-22T19:07:04.412Z,10.37
2022-11-22T19:09:32.895Z,10.42
2022-11-22T19:12:01.451Z,10.40
2022-11-22T19:14:31.361Z,10.43
2022-11-22T19:16:59.904Z,10.44
2022-11-22T19:19:32.210Z,10.34
2022-11-22T19:22:00.563Z,10.50
2022-11-22T19:24:29.538Z,10.40
2022-11-22T19:26:58.108Z,10.66
2022-11-22T19:29:26.386Z,10.70
2022-11-22T19:31:56.217Z,10.59
2022-11-22T19:34:24.636Z,10.69
2022-11-22T19:36:53.033Z,10.70
2022-11-22T19:39:21.463Z,10.79
2022-11-22T19:41:49.874Z,10.86
2022-11-22T19:44:18.145Z,10.73
2022-11-22T19:46:46.511Z,10.73
2022-11-22T19:49:16.288Z,10.16
2022-11-22T19:51:44.630Z,10.71
2022-11-22T19:54:12.955Z,10.77
2022-11-22T19:56:41.420Z,10.66
2022-11-22T19:59:15.500Z,10.59
2022-11-22T20:01:44.393Z,10.39
2022-11-22T20:04:16.715Z,10.65
2022-11-22T20:06:49.943Z,10.62
2022-11-22T20:09:18.811Z,10.73
2022-11-22T20:11:47.228Z,10.70
2022-11-22T20:14:15.576Z,10.88
2022-11-22T20:16:43.910Z,10.86
2022-11-22T20:19:12.697Z,10.88
2022-11-22T20:21:42.471Z,10.92
2022-11-22T20:24:11.155Z,11.03
2022-11-22T20:26:39.575Z,11.05
2022-11-22T20:29:11.394Z,11.01
2022-11-22T20:31:40.883Z,11.08
2022-11-22T20:34:10.765Z,11.09
2022-11-22T20:36:39.145Z,11.01
2022-11-22T20:39:11.542Z,10.71
2022-11-22T20:41:41.179Z,11.05
2022-11-22T20:44:14.562Z,11.06
2022-11-22T20:46:44.447Z,11.01
2022-11-22T20:49:13.292Z,11.10
2022-11-22T20:51:43.161Z,11.15
2022-11-22T20:54:14.105Z,11.05
2022-11-22T20:56:42.502Z,11.15
2022-11-22T20:59:11.226Z,11.12
2022-11-22T21:01:39.563Z,11.13
2022-11-22T21:04:08.050Z,11.12
2022-11-22T21:06:36.548Z,11.08
2022-11-22T21:09:05.064Z,11.12
2022-11-22T21:11:35.080Z,11.14
2022-11-22T21:14:03.477Z,11.18
2022-11-22T21:16:32.196Z,11.22
2022-11-22T21:19:04.901Z,11.22
2022-11-22T21:21:35.704Z,11.11
2022-11-22T21:24:05.505Z,11.14
2022-11-22T21:26:35.606Z,11.12
2022-11-22T21:29:11.526Z,10.92
2022-11-22T21:31:44.121Z,10.97
2022-11-22T21:34:13.323Z,11.15
2022-11-22T21:36:41.554Z,11.15
2022-11-22T21:39:10.083Z,11.10
2022-11-22T21:41:41.022Z,11.10
2022-11-22T21:44:10.715Z,11.08
2022-11-22T21:46:39.480Z,11.06
2022-11-22T21:49:08.302Z,11.06
2022-11-22T21:51:36.722Z,11.14
2022-11-22T21:54:06.052Z,11.12
2022-11-22T21:56:34.499Z,11.13
2022-11-22T21:59:04.149Z,11.14
2022-11-22T22:01:32.936Z,11.18
2022-11-22T22:04:01.185Z,11.13
2022-11-22T22:06:29.571Z,11.13
2022-11-22T22:08:58.237Z,10.97
2022-11-22T22:11:26.593Z,10.84
2022-11-22T22:13:55.304Z,11.06
2022-11-22T22:16:26.148Z,10.98
2022-11-22T22:18:55.080Z,11.05
2022-11-22T22:21:23.442Z,11.05
2022-11-22T22:23:51.942Z,11.01
2022-11-22T22:26:20.546Z,10.95
2022-11-22T22:28:48.968Z,10.95
2022-11-22T22:31:21.552Z,10.98
2022-11-22T22:33:54.752Z,10.94
2022-11-22T22:36:24.075Z,10.99
2022-11-22T22:38:52.870Z,10.99
2022-11-22T22:41:23.493Z,10.98
2022-11-22T22:43:51.785Z,10.98
2022-11-22T22:46:22.233Z,10.93
2022-11-22T22:48:54.873Z,10.86
2022-11-22T22:51:31.937Z,10.91
2022-11-22T22:54:02.118Z,10.96
2022-11-22T22:56:31.952Z,10.95
2022-11-22T22:59:01.620Z,10.79
2022-11-22T23:01:32.558Z,10.85
2022-11-22T23:04:03.555Z,10.86
2022-11-22T23:06:34.365Z,10.95
2022-11-22T23:09:04.187Z,10.99
2022-11-22T23:11:51.371Z,10.94
2022-11-22T23:14:23.500Z,10.91
2022-11-22T23:16:57.905Z,10.90
2022-11-22T23:19:29.278Z,9.14
2022-11-22T23:21:57.723Z,10.92
2022-11-22T23:24:26.051Z,10.95
2022-11-22T23:26:54.362Z,11.00
2022-11-22T23:29:22.652Z,10.73
2022-11-22T23:31:51.124Z,10.95
2022-11-22T23:34:19.688Z,10.90
2022-11-22T23:36:49.378Z,10.92
2022-11-22T23:39:17.809Z,10.82
2022-11-22T23:41:46.133Z,10.81
2022-11-22T23:44:14.442Z,10.79
2022-11-22T23:46:42.725Z,10.88
2022-11-22T23:49:13.145Z,10.77
2022-11-22T23:51:41.432Z,10.94
2022-11-22T23:54:12.033Z,10.93
2022-11-22T23:56:40.340Z,10.93
2022-11-22T23:59:09.836Z,10.85
